Time;durP1;ratioP1;P1;durP2;ratioP2;P2;SDS_P1;SDS_P2;PMS_P1;PMS_P2;Temp;Humidity;BMP_temperature;BMP_pressure;BME280_temperature;BME280_humidity;BME280_pressure;Samples;Min_cycle;Max_cycle;Signal;HPM_P1;HPM_P2
2021/09/29 00:02:18;;;;;;;12.45;10.25;;;;;;;33.92;24.09;94870.91;5074268;28;20463;-44
2021/09/29 00:04:45;;;;;;;11.18;10.18;;;;;;;33.83;24.00;94868.00;5081714;28;20075;-44
2021/09/29 00:07:13;;;;;;;9.77;8.95;;;;;;;33.89;24.32;94874.47;5094296;28;20055;-44
2021/09/29 00:09:40;;;;;;;10.65;9.75;;;;;;;33.83;24.07;94878.84;5094050;28;20067;-43
2021/09/29 00:12:07;;;;;;;10.63;9.68;;;;;;;33.81;24.47;94870.34;5094506;28;20074;-44
2021/09/29 00:14:34;;;;;;;9.63;8.73;;;;;;;34.05;24.25;94870.97;5087984;28;20044;-43
2021/09/29 00:17:01;;;;;;;11.25;9.38;;;;;;;34.13;23.92;94870.41;5074232;28;20048;-44
2021/09/29 00:19:28;;;;;;;10.77;9.38;;;;;;;34.11;23.99;94867.34;5074362;28;20064;-43
2021/09/29 00:21:56;;;;;;;10.60;9.60;;;;;;;34.11;23.78;94867.34;5074081;28;20447;-44
2021/09/29 00:24:23;;;;;;;10.57;9.50;;;;;;;34.08;23.93;94868.16;5074031;28;20056;-43
2021/09/29 00:26:50;;;;;;;10.43;9.52;;;;;;;34.08;23.95;94868.16;5074570;28;20052;-44
2021/09/29 00:29:17;;;;;;;11.52;9.70;;;;;;;33.92;24.26;94860.06;5074154;28;20053;-43
2021/09/29 00:31:44;;;;;;;10.75;9.70;;;;;;;34.00;24.07;94862.16;5074035;28;20040;-43
2021/09/29 00:34:13;;;;;;;9.65;8.68;;;;;;;33.92;24.09;94866.25;5073859;28;20045;-45
2021/09/29 00:36:45;;;;;;;9.32;8.48;;;;;;;34.25;23.46;94872.41;5074361;28;20482;-44
2021/09/29 00:39:12;;;;;;;10.27;9.32;;;;;;;34.17;23.56;94865.63;5074170;28;20041;-43
2021/09/29 00:41:41;;;;;;;9.30;8.50;;;;;;;34.20;23.47;94874.88;5073941;28;20051;-44
2021/09/29 00:44:08;;;;;;;8.88;8.07;;;;;;;34.07;23.55;94877.50;5073775;28;20052;-44
2021/09/29 00:46:36;;;;;;;9.27;8.43;;;;;;;34.04;23.57;94867.50;5074033;28;20051;-44
2021/09/29 00:49:03;;;;;;;9.95;8.15;;;;;;;34.08;23.56;94873.59;5074108;28;20045;-44
2021/09/29 00:51:30;;;;;;;8.10;7.30;;;;;;;34.02;23.52;94867.16;5073079;28;20063;-43
2021/09/29 00:53:58;;;;;;;7.38;6.75;;;;;;;34.02;23.51;94862.50;5072710;28;20051;-44
2021/09/29 00:56:25;;;;;;;7.60;6.65;;;;;;;34.13;23.19;94864.97;5094403;28;20052;-45
2021/09/29 00:58:52;;;;;;;6.85;6.03;;;;;;;34.00;23.16;94855.97;5074679;28;20044;-43
2021/09/29 01:01:19;;;;;;;7.43;6.53;;;;;;;33.95;23.09;94861.94;5073498;28;20054;-43
2021/09/29 01:03:47;;;;;;;6.30;5.80;;;;;;;34.05;22.86;94863.59;5073226;28;20053;-44
2021/09/29 01:06:28;;;;;;;6.95;5.28;;;;;;;34.00;22.89;94866.84;5056010;28;20063;-44
2021/09/29 01:09:02;;;;;;;5.97;5.35;;;;;;;33.99;23.08;94862.59;5055216;28;20036;-43
2021/09/29 01:12:02;;;;;;;5.75;4.93;;;;;;;34.09;22.91;94864.28;5072925;28;20063;-44
2021/09/29 01:14:48;;;;;;;5.10;4.70;;;;;;;34.05;22.68;94870.97;5059816;28;20390;-44
2021/09/29 01:17:18;;;;;;;6.35;4.63;;;;;;;33.96;22.70;94871.59;5068741;28;20048;-43
2021/09/29 01:19:57;;;;;;;6.07;4.60;;;;;;;33.76;23.32;94868.16;5059730;28;20051;-44
2021/09/29 01:22:42;;;;;;;4.47;4.07;;;;;;;33.89;22.88;94871.78;5072974;28;20039;-45
2021/09/29 01:25:42;;;;;;;4.38;3.92;;;;;;;34.06;22.58;94869.78;5088217;28;20044;-43
2021/09/29 01:28:09;;;;;;;4.63;4.10;;;;;;;33.86;22.76;94870.66;5076621;28;20075;-43
2021/09/29 01:30:37;;;;;;;4.75;4.10;;;;;;;33.86;22.75;94872.63;5059375;28;20029;-43
2021/09/29 01:33:05;;;;;;;4.43;4.03;;;;;;;34.02;22.35;94864.47;5076690;28;20437;-44
2021/09/29 01:35:32;;;;;;;4.00;3.60;;;;;;;33.87;22.55;94876.84;5088945;28;20410;-43
2021/09/29 01:37:59;;;;;;;3.90;3.60;;;;;;;33.89;22.68;94882.63;5097403;28;20051;-43
2021/09/29 01:40:26;;;;;;;3.65;3.35;;;;;;;33.80;22.74;94868.84;5097272;28;20355;-44
2021/09/29 01:42:54;;;;;;;5.60;3.50;;;;;;;33.87;22.41;94871.44;5097016;28;20047;-43
2021/09/29 01:45:21;;;;;;;5.20;3.38;;;;;;;33.84;22.32;94875.00;5086778;28;20048;-43
2021/09/29 01:47:48;;;;;;;3.97;3.58;;;;;;;33.80;22.76;94872.31;5076698;28;20040;-44
2021/09/29 01:50:20;;;;;;;3.53;3.17;;;;;;;33.70;22.60;94881.47;5058980;28;20048;-43
2021/09/29 01:52:47;;;;;;;4.13;3.63;;;;;;;33.72;22.61;94879.09;5075613;28;20048;-43
2021/09/29 01:55:19;;;;;;;4.70;3.40;;;;;;;33.67;22.77;94872.22;5069890;28;20048;-43
2021/09/29 01:57:47;;;;;;;4.85;3.92;;;;;;;33.73;22.55;94864.34;5075818;28;20044;-43
2021/09/29 02:00:16;;;;;;;4.13;3.72;;;;;;;33.76;22.60;94862.75;5075262;28;20040;-45
2021/09/29 02:02:45;;;;;;;4.28;3.85;;;;;;;33.76;22.34;94868.16;5075673;28;20355;-43
2021/09/29 02:05:13;;;;;;;4.72;3.80;;;;;;;33.81;22.40;94867.66;5076086;28;20363;-43
2021/09/29 02:07:41;;;;;;;5.93;4.05;;;;;;;33.52;23.03;94865.59;5076584;28;20404;-43
2021/09/29 02:10:09;;;;;;;5.60;3.67;;;;;;;33.80;22.58;94864.19;5076111;28;20051;-44
2021/09/29 02:12:36;;;;;;;3.90;3.60;;;;;;;33.71;22.33;94867.50;5076179;28;20052;-43
2021/09/29 02:15:05;;;;;;;4.85;3.58;;;;;;;33.82;22.69;94863.75;5075881;28;20370;-44
2021/09/29 02:17:32;;;;;;;4.10;3.70;;;;;;;33.58;22.88;94874.78;5076148;28;20040;-42
2021/09/29 02:19:59;;;;;;;4.40;3.58;;;;;;;33.63;22.62;94870.81;5076175;28;20055;-43
2021/09/29 02:22:26;;;;;;;5.70;3.95;;;;;;;33.66;22.58;94876.13;5074871;28;20498;-44
2021/09/29 02:24:53;;;;;;;3.78;3.35;;;;;;;33.87;22.28;94882.28;5080636;28;20056;-45
2021/09/29 02:27:20;;;;;;;4.03;3.38;;;;;;;33.71;22.58;94878.34;5092408;28;20044;-43
2021/09/29 02:29:47;;;;;;;3.50;3.20;;;;;;;33.85;22.32;94871.84;5075779;28;20052;-44
2021/09/29 02:32:15;;;;;;;4.32;3.13;;;;;;;33.92;22.09;94879.81;5075789;28;20052;-43
2021/09/29 02:34:42;;;;;;;5.20;3.08;;;;;;;33.78;22.28;94879.34;5078648;28;20063;-44
2021/09/29 02:37:09;;;;;;;5.15;3.20;;;;;;;33.68;22.46;94873.75;5096074;28;20043;-44
2021/09/29 02:39:36;;;;;;;3.55;3.20;;;;;;;33.70;22.40;94887.66;5095411;28;20044;-44
2021/09/29 02:42:04;;;;;;;3.40;3.10;;;;;;;33.61;22.38;94884.00;5095134;28;20055;-43
2021/09/29 02:44:32;;;;;;;5.00;3.00;;;;;;;33.75;22.04;94877.47;5094563;28;20040;-45
2021/09/29 02:46:59;;;;;;;4.60;3.30;;;;;;;33.64;21.94;94883.16;5074861;28;20362;-43
2021/09/29 02:49:26;;;;;;;4.80;3.25;;;;;;;33.51;22.08;94885.00;5075677;28;20048;-43
2021/09/29 02:51:54;;;;;;;4.90;3.42;;;;;;;33.53;21.59;94880.69;5075487;28;20055;-44
2021/09/29 02:54:22;;;;;;;4.10;3.10;;;;;;;33.39;21.64;94881.78;5075544;28;20371;-44
2021/09/29 02:56:49;;;;;;;5.18;3.20;;;;;;;33.49;21.81;94887.38;5095538;28;20040;-44
2021/09/29 02:59:16;;;;;;;5.20;3.30;;;;;;;33.39;21.92;94889.13;5077935;28;20048;-44
2021/09/29 03:01:43;;;;;;;4.72;3.08;;;;;;;33.43;21.95;94887.13;5075301;28;20052;-43
2021/09/29 03:04:10;;;;;;;3.28;2.70;;;;;;;33.45;21.88;94892.09;5075299;28;20455;-43
2021/09/29 03:06:37;;;;;;;3.67;3.13;;;;;;;33.39;21.71;94891.84;5062006;28;20052;-43
2021/09/29 03:09:05;;;;;;;3.95;2.83;;;;;;;33.56;21.49;94898.03;5055412;28;20037;-44
2021/09/29 03:11:32;;;;;;;3.63;3.00;;;;;;;33.31;22.12;94888.53;5058881;28;20059;-44
2021/09/29 03:14:00;;;;;;;3.58;2.88;;;;;;;33.32;21.94;94906.31;5074771;28;20051;-43
2021/09/29 03:16:27;;;;;;;4.75;2.92;;;;;;;33.27;21.93;94889.75;5087277;28;20048;-43
2021/09/29 03:18:55;;;;;;;2.92;2.63;;;;;;;33.34;21.64;94900.47;5075145;28;20059;-44
2021/09/29 03:21:22;;;;;;;3.55;2.65;;;;;;;33.31;21.41;94896.66;5074814;28;20051;-43
2021/09/29 03:23:49;;;;;;;3.72;2.60;;;;;;;33.46;21.54;94894.41;5075011;28;20482;-44
2021/09/29 03:26:16;;;;;;;4.10;2.90;;;;;;;33.49;21.41;94898.97;5074960;28;20358;-44
2021/09/29 03:28:45;;;;;;;2.60;2.40;;;;;;;33.46;21.71;94888.22;5074811;28;20060;-44
2021/09/29 03:31:12;;;;;;;3.42;2.75;;;;;;;33.21;21.72;94886.00;5074359;28;20362;-43
2021/09/29 03:33:40;;;;;;;3.33;2.65;;;;;;;33.25;22.01;94884.75;5074329;28;20051;-43
2021/09/29 03:36:07;;;;;;;3.03;2.35;;;;;;;33.39;21.31;94883.72;5074924;28;20447;-43
2021/09/29 03:38:35;;;;;;;3.50;2.63;;;;;;;33.44;21.33;94871.63;5074749;28;20351;-44
2021/09/29 03:41:02;;;;;;;3.40;2.45;;;;;;;33.36;21.48;94873.72;5074991;28;20375;-43
2021/09/29 03:43:29;;;;;;;3.08;2.33;;;;;;;33.35;21.47;94874.91;5073983;28;20040;-43
2021/09/29 03:45:56;;;;;;;2.85;2.40;;;;;;;33.57;21.49;94875.19;5084967;28;20354;-44
2021/09/29 03:48:23;;;;;;;5.25;2.70;;;;;;;33.53;21.27;94867.13;5074945;28;20340;-44
2021/09/29 03:50:50;;;;;;;3.03;2.72;;;;;;;33.37;21.59;94867.13;5073257;28;20052;-43
2021/09/29 03:53:18;;;;;;;3.13;2.53;;;;;;;33.56;21.37;94873.66;5074318;28;20375;-43
2021/09/29 03:55:45;;;;;;;3.28;2.65;;;;;;;33.63;21.30;94876.22;5083586;28;20463;-44
2021/09/29 03:58:12;;;;;;;3.92;2.60;;;;;;;33.54;21.43;94871.38;5088416;28;20051;-44
2021/09/29 04:00:39;;;;;;;3.78;2.60;;;;;;;33.56;21.58;94870.94;5074233;28;20439;-43
2021/09/29 04:03:07;;;;;;;2.63;2.40;;;;;;;33.72;21.31;94879.09;5073309;28;20044;-45
2021/09/29 04:05:34;;;;;;;7.53;2.88;;;;;;;34.08;20.81;94881.72;5074410;28;20056;-46
2021/09/29 04:08:01;;;;;;;3.40;2.75;;;;;;;34.11;20.90;94872.78;5073797;28;20048;-45
2021/09/29 04:10:28;;;;;;;6.10;3.05;;;;;;;34.07;21.25;94877.50;5083569;28;20052;-44
2021/09/29 04:12:55;;;;;;;5.15;3.00;;;;;;;34.17;20.78;94881.91;5072296;28;20056;-45
2021/09/29 04:15:23;;;;;;;3.83;2.70;;;;;;;34.30;20.63;94881.97;5074389;28;20053;-44
2021/09/29 04:17:50;;;;;;;5.13;2.80;;;;;;;34.32;20.52;94879.59;5079011;28;20051;-44
2021/09/29 04:20:17;;;;;;;2.97;2.60;;;;;;;34.21;21.03;94887.25;5079684;28;20052;-44
2021/09/29 04:22:44;;;;;;;3.33;2.72;;;;;;;34.21;20.75;94888.00;5082000;28;20481;-48
2021/09/29 04:25:11;;;;;;;3.08;2.60;;;;;;;34.51;20.26;94883.41;5081303;28;20057;-54
2021/09/29 04:27:39;;;;;;;5.35;2.63;;;;;;;34.43;20.61;94880.13;5080332;28;20467;-42
2021/09/29 04:30:06;;;;;;;3.47;2.88;;;;;;;34.31;20.92;94892.38;5073914;28;20040;-45
2021/09/29 04:32:34;;;;;;;4.60;3.00;;;;;;;34.33;20.71;94897.38;5073289;28;20339;-47
2021/09/29 04:35:01;;;;;;;6.18;3.33;;;;;;;34.12;20.93;94896.00;5074686;28;20044;-45
2021/09/29 04:37:28;;;;;;;3.95;3.58;;;;;;;34.25;20.97;94904.94;5094505;28;20048;-48
2021/09/29 04:39:55;;;;;;;7.28;3.83;;;;;;;34.44;20.88;94899.88;5094201;28;20044;-44
2021/09/29 04:42:22;;;;;;;7.53;4.70;;;;;;;34.18;21.01;94899.72;5094084;28;20502;-46
2021/09/29 04:44:49;;;;;;;5.93;5.32;;;;;;;34.04;21.15;94905.47;5093234;28;20044;-44
2021/09/29 04:47:16;;;;;;;5.57;5.05;;;;;;;33.82;21.62;94899.00;5083648;28;20497;-43
2021/09/29 04:49:43;;;;;;;6.53;5.13;;;;;;;34.14;21.35;94904.47;5084951;28;20051;-48
2021/09/29 04:52:10;;;;;;;6.25;5.10;;;;;;;33.72;21.42;94896.13;5091159;28;20060;-43
2021/09/29 04:54:37;;;;;;;7.10;4.95;;;;;;;33.83;21.00;94900.53;5078142;28;20052;-44
2021/09/29 04:57:05;;;;;;;5.45;4.53;;;;;;;33.56;21.19;94906.94;5077811;28;20379;-42
2021/09/29 04:59:32;;;;;;;4.45;4.05;;;;;;;33.50;20.92;94908.63;5077668;28;20447;-48
2021/09/29 05:01:59;;;;;;;4.75;4.30;;;;;;;33.52;20.81;94911.69;5077753;28;20455;-43
2021/09/29 05:04:26;;;;;;;7.38;4.07;;;;;;;33.60;21.04;94909.59;5077952;28;20048;-43
2021/09/29 05:06:54;;;;;;;6.43;4.15;;;;;;;33.47;21.01;94914.88;5093858;28;20044;-44
2021/09/29 05:09:22;;;;;;;4.57;3.80;;;;;;;33.51;20.73;94907.44;5090675;28;20053;-44
2021/09/29 05:11:54;;;;;;;4.30;3.90;;;;;;;33.25;21.46;94911.84;5059778;28;20049;-43
2021/09/29 05:14:21;;;;;;;4.72;4.25;;;;;;;33.34;21.00;94919.44;5060053;28;20056;-42
2021/09/29 05:16:48;;;;;;;5.22;3.90;;;;;;;33.52;20.99;94914.38;5085971;28;20052;-48
2021/09/29 05:19:15;;;;;;;6.05;4.00;;;;;;;33.42;21.41;94927.00;5077315;28;20514;-47
2021/09/29 05:21:42;;;;;;;4.25;3.83;;;;;;;33.17;21.27;94931.38;5077146;28;20398;-42
2021/09/29 05:24:09;;;;;;;5.43;4.20;;;;;;;33.25;20.97;94927.31;5077241;28;20056;-44
2021/09/29 05:26:36;;;;;;;7.63;4.20;;;;;;;33.30;21.20;94940.38;5090157;28;20056;-43
2021/09/29 05:29:06;;;;;;;4.80;4.30;;;;;;;33.41;20.66;94940.97;5088247;28;20059;-43
2021/09/29 05:31:33;;;;;;;6.22;4.05;;;;;;;33.45;20.65;94940.88;5077365;28;20041;-48
2021/09/29 05:34:00;;;;;;;4.05;3.50;;;;;;;33.33;20.81;94942.31;5077115;28;20045;-44
2021/09/29 05:36:27;;;;;;;4.30;3.90;;;;;;;33.16;21.46;94949.56;5076886;28;20045;-47
2021/09/29 05:38:55;;;;;;;4.75;4.25;;;;;;;33.15;20.91;94939.16;5076845;28;20056;-44
2021/09/29 05:41:22;;;;;;;4.40;3.45;;;;;;;33.25;21.06;94949.75;5076978;28;20059;-44
2021/09/29 05:43:49;;;;;;;4.32;3.92;;;;;;;33.36;20.92;94950.34;5076928;28;20060;-51
2021/09/29 05:46:16;;;;;;;4.80;3.58;;;;;;;33.40;20.61;94952.97;5084421;28;20470;-44
2021/09/29 05:48:43;;;;;;;4.70;4.20;;;;;;;33.31;20.83;94952.75;5076655;28;20052;-43
2021/09/29 05:51:10;;;;;;;5.57;3.95;;;;;;;33.17;20.86;94959.22;5078372;28;20052;-44
2021/09/29 05:53:37;;;;;;;4.53;4.10;;;;;;;32.89;21.42;94960.53;5079761;28;20048;-43
2021/09/29 05:56:04;;;;;;;5.38;3.80;;;;;;;32.76;21.31;94963.03;5056835;28;20048;-43
2021/09/29 05:58:31;;;;;;;3.92;3.58;;;;;;;33.16;21.02;94962.34;5058784;28;20045;-43
2021/09/29 06:00:58;;;;;;;7.57;4.13;;;;;;;33.84;20.59;94956.31;5076336;28;20486;-44
2021/09/29 06:03:25;;;;;;;5.47;4.03;;;;;;;34.18;20.55;94964.81;5075883;28;20370;-45
2021/09/29 06:05:52;;;;;;;4.75;4.13;;;;;;;34.13;20.60;94968.03;5061477;28;20063;-42
2021/09/29 06:08:19;;;;;;;4.20;3.80;;;;;;;33.94;20.89;94977.00;5056571;28;20041;-43
2021/09/29 06:10:46;;;;;;;5.40;4.07;;;;;;;34.25;20.62;94963.88;5055636;28;20047;-43
2021/09/29 06:13:15;;;;;;;4.60;3.97;;;;;;;34.28;20.32;94974.63;5065833;28;20439;-45
2021/09/29 06:15:43;;;;;;;4.22;3.83;;;;;;;34.17;20.39;94976.09;5076205;28;20048;-44
2021/09/29 06:18:14;;;;;;;4.93;3.80;;;;;;;34.38;20.28;94972.91;5075340;28;20040;-43
2021/09/29 06:20:47;;;;;;;6.55;4.20;;;;;;;34.39;20.41;94976.38;5075453;28;20044;-44
2021/09/29 06:23:15;;;;;;;4.93;3.75;;;;;;;34.69;20.02;94978.72;5075843;28;20052;-49
2021/09/29 06:25:43;;;;;;;4.88;3.90;;;;;;;34.85;19.89;94981.41;5079193;28;20063;-43
2021/09/29 06:28:10;;;;;;;4.20;3.80;;;;;;;34.70;19.91;94982.19;5056269;28;20041;-44
2021/09/29 06:30:38;;;;;;;4.18;3.78;;;;;;;34.36;20.01;94985.38;5073826;28;20056;-43
2021/09/29 06:33:05;;;;;;;6.03;3.60;;;;;;;34.06;20.11;94984.47;5075561;28;20048;-43
2021/09/29 06:35:32;;;;;;;4.55;3.80;;;;;;;33.75;20.68;94988.63;5069097;28;20076;-43
2021/09/29 06:38:00;;;;;;;5.10;3.67;;;;;;;33.69;20.55;94991.09;5055479;28;20395;-44
2021/09/29 06:40:28;;;;;;;5.15;3.88;;;;;;;33.63;20.64;94984.63;5055910;28;20041;-43
2021/09/29 06:42:56;;;;;;;5.55;3.95;;;;;;;33.70;20.72;94993.38;5061737;28;20443;-44
2021/09/29 06:45:23;;;;;;;4.05;3.25;;;;;;;33.83;20.94;95000.84;5088363;28;20043;-47
2021/09/29 06:47:50;;;;;;;4.45;3.70;;;;;;;34.41;20.80;94995.72;5079719;28;20041;-44
2021/09/29 06:50:19;;;;;;;5.13;3.90;;;;;;;34.77;20.22;94988.19;5075589;28;20059;-51
2021/09/29 06:52:46;;;;;;;4.65;3.78;;;;;;;34.01;20.71;94993.09;5075149;28;20061;-46
2021/09/29 06:55:13;;;;;;;9.18;3.72;;;;;;;33.72;20.74;94991.00;5075421;28;20048;-46
2021/09/29 06:57:40;;;;;;;4.35;3.95;;;;;;;33.48;21.14;94995.00;5075546;28;20055;-45
2021/09/29 07:00:09;;;;;;;5.22;3.45;;;;;;;33.71;21.19;95003.03;5069417;28;20448;-45
2021/09/29 07:02:43;;;;;;;4.07;3.65;;;;;;;33.75;21.01;94996.75;5058117;28;20049;-48
2021/09/29 07:05:10;;;;;;;8.18;4.13;;;;;;;33.51;21.50;94999.56;5085006;28;20051;-45
2021/09/29 07:07:37;;;;;;;4.43;3.63;;;;;;;33.70;21.22;95012.34;5095773;28;20434;-45
2021/09/29 07:10:05;;;;;;;4.03;3.63;;;;;;;33.60;21.00;94999.03;5095615;28;20048;-45
2021/09/29 07:12:32;;;;;;;5.43;3.60;;;;;;;33.44;21.68;95004.38;5095205;28;20059;-46
2021/09/29 07:14:59;;;;;;;4.43;4.03;;;;;;;33.38;21.33;95006.81;5085204;28;20359;-45
2021/09/29 07:17:27;;;;;;;3.92;3.28;;;;;;;33.65;20.98;95014.78;5074512;28;20056;-45
2021/09/29 07:19:57;;;;;;;3.53;3.08;;;;;;;33.17;21.87;95007.22;5056926;28;20048;-45
2021/09/29 07:22:25;;;;;;;3.60;3.30;;;;;;;33.38;21.28;95009.53;5074969;28;20052;-45
2021/09/29 07:24:53;;;;;;;4.47;3.28;;;;;;;33.41;21.62;95016.81;5082357;28;20056;-44
2021/09/29 07:27:20;;;;;;;5.25;3.65;;;;;;;33.21;21.52;95008.66;5093920;28;20048;-44
2021/09/29 07:29:47;;;;;;;4.03;3.60;;;;;;;33.29;21.38;95003.88;5086235;28;20048;-45
2021/09/29 07:32:14;;;;;;;6.78;3.78;;;;;;;33.34;21.70;95009.63;5075118;28;20451;-46
2021/09/29 07:34:41;;;;;;;5.53;3.30;;;;;;;33.34;21.35;95009.63;5080479;28;20047;-45
2021/09/29 07:37:08;;;;;;;6.10;3.72;;;;;;;33.44;21.44;95010.56;5095249;28;20058;-44
2021/09/29 07:39:35;;;;;;;6.18;3.45;;;;;;;33.36;21.61;95009.19;5095192;28;20349;-44
2021/09/29 07:42:03;;;;;;;8.57;3.92;;;;;;;33.43;21.83;95006.34;5095120;28;20450;-46
2021/09/29 07:44:30;;;;;;;4.90;4.10;;;;;;;33.53;21.12;95020.84;5094790;28;20052;-45
2021/09/29 07:46:57;;;;;;;6.05;4.13;;;;;;;33.60;21.48;95023.41;5086877;28;20477;-47
2021/09/29 07:49:24;;;;;;;4.18;3.78;;;;;;;33.18;21.68;95022.28;5074828;28;20041;-45
2021/09/29 07:51:51;;;;;;;5.25;3.75;;;;;;;33.26;21.51;95023.66;5074786;28;20048;-44
2021/09/29 07:54:18;;;;;;;4.97;3.80;;;;;;;33.56;21.28;95028.88;5075653;28;20049;-45
2021/09/29 07:56:45;;;;;;;5.20;4.32;;;;;;;33.51;21.46;95020.50;5093326;28;20055;-45
2021/09/29 07:59:12;;;;;;;5.07;4.57;;;;;;;33.53;21.48;95021.59;5091921;28;20044;-45
2021/09/29 08:01:39;;;;;;;6.97;4.18;;;;;;;33.49;21.45;95020.91;5074660;28;20048;-50
2021/09/29 08:04:06;;;;;;;5.75;4.47;;;;;;;33.63;21.18;95022.59;5074508;28;20355;-45
2021/09/29 08:06:35;;;;;;;9.60;4.95;;;;;;;33.68;21.10;95025.56;5094547;28;20055;-46
2021/09/29 08:09:02;;;;;;;5.70;4.40;;;;;;;33.35;21.68;95029.34;5094771;28;20047;-45
2021/09/29 08:11:29;;;;;;;4.70;3.90;;;;;;;33.46;21.79;95024.47;5094241;28;20043;-44
2021/09/29 08:13:56;;;;;;;7.00;4.65;;;;;;;33.24;21.62;95029.50;5094635;28;20055;-44
2021/09/29 08:16:23;;;;;;;5.40;4.53;;;;;;;33.25;21.74;95035.69;5091280;28;20049;-46
2021/09/29 08:18:50;;;;;;;7.32;5.05;;;;;;;33.04;21.76;95037.59;5074261;28;20052;-44
2021/09/29 08:21:23;;;;;;;6.95;4.80;;;;;;;33.19;22.12;95042.78;5074470;28;20057;-45
2021/09/29 08:23:53;;;;;;;6.47;4.78;;;;;;;33.03;21.77;95041.50;5073617;28;20056;-45
2021/09/29 08:29:05;;;;;;;5.65;4.82;;;;;;;33.36;21.69;95044.41;5098454;28;20091;-45
2021/09/29 08:31:39;;;;;;;7.50;5.10;;;;;;;33.23;21.64;95035.34;5058439;28;20044;-45
2021/09/29 08:39:35;;;;;;;7.93;4.72;;;;;;;33.09;21.66;95034.44;5078149;28;20055;-46
2021/09/29 08:44:45;;;;;;;8.27;4.93;;;;;;;33.18;21.79;95041.25;5079868;28;20056;-45
2021/09/29 08:47:16;;;;;;;5.30;4.43;;;;;;;33.03;21.96;95046.91;5088131;28;20048;-46
2021/09/29 09:16:40;;;;;;;4.93;4.43;;;;;;;32.82;21.89;95041.13;5092241;28;20051;-46
2021/09/29 09:19:10;;;;;;;4.45;4.05;;;;;;;32.98;22.10;95052.03;5076102;28;20501;-47
2021/09/29 09:21:50;;;;;;;5.22;4.72;;;;;;;33.01;21.72;95043.84;5077332;28;20702;-47
2021/09/29 09:24:19;;;;;;;4.93;4.18;;;;;;;33.27;21.45;95055.00;5058994;28;20063;-44
2021/09/29 09:27:07;;;;;;;6.72;4.50;;;;;;;33.42;21.16;95040.78;5076172;28;20467;-46
2021/09/29 09:29:45;;;;;;;6.05;4.88;;;;;;;33.02;21.88;95050.03;5076744;28;20059;-47
2021/09/29 09:32:14;;;;;;;7.18;4.95;;;;;;;33.26;21.36;95050.75;5077131;28;20044;-44
2021/09/29 09:34:42;;;;;;;5.15;4.65;;;;;;;33.27;21.23;95061.16;5081675;28;20056;-44
2021/09/29 09:37:14;;;;;;;7.93;5.30;;;;;;;33.29;20.98;95055.34;5079684;28;21443;-47
2021/09/29 09:39:42;;;;;;;8.38;5.72;;;;;;;34.09;20.51;95054.13;5074414;28;20482;-49
2021/09/29 09:42:10;;;;;;;5.47;4.63;;;;;;;34.47;20.71;95040.13;5057039;28;20045;-49
2021/09/29 09:44:41;;;;;;;9.80;5.20;;;;;;;34.18;20.83;95054.34;5057193;28;20056;-49
2021/09/29 09:47:13;;;;;;;6.43;4.77;;;;;;;34.06;21.01;95046.84;5072089;28;20048;-45
2021/09/29 09:49:51;;;;;;;7.53;4.85;;;;;;;33.75;21.07;95050.97;5077011;28;20294;-46
2021/09/29 09:52:42;;;;;;;5.45;4.95;;;;;;;33.73;21.46;95046.75;5076613;28;20044;-46
2021/09/29 09:55:15;;;;;;;5.53;4.95;;;;;;;33.41;21.20;95047.41;5076906;28;20363;-44
2021/09/29 09:57:43;;;;;;;5.72;5.22;;;;;;;33.29;21.26;95047.22;5076436;28;20052;-45
2021/09/29 10:00:16;;;;;;;5.32;4.82;;;;;;;33.50;21.50;95052.25;5076200;28;20052;-46
2021/09/29 10:02:47;;;;;;;10.88;5.65;;;;;;;33.37;21.46;95048.66;5075732;28;20045;-46
2021/09/29 10:05:19;;;;;;;7.07;5.60;;;;;;;33.63;21.21;95044.25;5061177;28;20052;-46
2021/09/29 10:07:47;;;;;;;5.90;5.40;;;;;;;33.67;21.15;95040.28;5063416;28;20047;-46
2021/09/29 10:26:07;;;;;;;6.28;5.68;;;;;;;32.70;21.58;95045.91;5060956;28;20055;-48
2021/09/29 10:27:09;;;;;;;6.25;5.65;;;;;;;31.71;23.37;95037.28;5066728;28;20071;-45
2021/09/29 10:29:42;;;;;;;11.30;10.02;;;;;;;32.80;21.83;95047.72;5076012;28;20048;-48
2021/09/29 10:32:22;;;;;;;9.75;8.75;;;;;;;33.15;21.66;95047.50;5074623;28;20111;-48
2021/09/29 10:43:37;;;;;;;7.20;6.50;;;;;;;33.35;21.21;95040.19;5075756;28;20040;-44
2021/09/29 10:47:12;;;;;;;6.40;5.78;;;;;;;33.59;20.74;95055.19;5079438;28;20039;-46
2021/09/29 11:30:42;;;;;;;7.03;6.43;;;;;;;33.50;20.80;95021.69;5080599;28;20075;-46
2021/09/29 11:33:22;;;;;;;6.60;6.00;;;;;;;33.42;20.86;95018.34;5074879;28;20040;-44
2021/09/29 12:11:08;;;;;;;8.95;8.05;;;;;;;33.47;21.21;95011.69;5074607;28;20044;-45
2021/09/29 12:13:50;;;;;;;8.68;7.78;;;;;;;33.66;21.15;95010.91;5074325;28;20119;-45
2021/09/29 12:16:36;;;;;;;21.85;19.63;;;;;;;33.89;20.56;95012.75;5059605;28;20058;-46
2021/09/29 12:19:10;;;;;;;11.07;9.98;;;;;;;33.65;20.84;95009.38;5073095;28;20057;-45
2021/09/29 12:21:45;;;;;;;9.45;8.55;;;;;;;33.85;20.88;95018.28;5074365;28;20048;-44
2021/09/29 12:24:25;;;;;;;9.65;8.75;;;;;;;33.64;21.00;95013.25;5074397;28;20056;-45
2021/09/29 12:26:54;;;;;;;10.23;8.95;;;;;;;33.27;21.53;95019.78;5073980;28;20444;-41
2021/09/29 12:29:32;;;;;;;9.25;8.35;;;;;;;33.69;21.45;95016.25;5070420;28;20451;-45
2021/09/29 12:32:14;;;;;;;10.43;9.10;;;;;;;33.81;21.20;95016.75;5065965;28;20051;-48
2021/09/29 12:34:50;;;;;;;9.52;8.60;;;;;;;34.69;20.47;95010.53;5054434;28;20047;-49
2021/09/29 12:37:17;;;;;;;10.48;9.38;;;;;;;34.72;20.77;95004.25;5057436;28;20056;-51
2021/09/29 12:39:44;;;;;;;9.68;8.68;;;;;;;34.63;20.49;95010.28;5072527;28;20447;-46
2021/09/29 12:42:11;;;;;;;9.95;8.93;;;;;;;34.29;20.61;95003.28;5074089;28;20048;-47
2021/09/29 12:44:51;;;;;;;9.50;8.60;;;;;;;34.30;20.55;95010.25;5073577;28;20056;-47
2021/09/29 12:50:12;;;;;;;10.35;9.35;;;;;;;34.06;21.00;94992.59;5054229;28;20045;-45
2021/09/29 12:52:48;;;;;;;11.32;10.15;;;;;;;34.00;20.97;94999.72;5038112;28;20459;-46
2021/09/29 12:55:20;;;;;;;11.93;9.57;;;;;;;33.97;20.84;94997.84;5053994;28;20053;-46
2021/09/29 12:57:48;;;;;;;10.98;9.98;;;;;;;33.85;20.86;94995.81;5068806;28;20048;-48
2021/09/29 13:00:16;;;;;;;10.75;9.73;;;;;;;33.73;20.83;94995.25;5073743;28;20048;-45
2021/09/29 13:02:43;;;;;;;11.00;9.90;;;;;;;34.08;20.63;94992.19;5072986;28;20052;-45
2021/09/29 13:05:11;;;;;;;11.15;10.15;;;;;;;34.18;20.28;95002.78;5056670;28;20040;-48
2021/09/29 13:07:38;;;;;;;11.63;10.43;;;;;;;34.05;20.65;94993.78;5087029;28;20052;-46
2021/09/29 13:10:05;;;;;;;13.00;11.15;;;;;;;33.94;21.02;94998.69;5094347;28;20367;-46
2021/09/29 13:12:33;;;;;;;11.73;10.57;;;;;;;33.92;20.92;94990.22;5095643;28;20039;-46
2021/09/29 13:15:01;;;;;;;12.23;11.00;;;;;;;33.83;21.19;94998.13;5097829;28;20044;-45
2021/09/29 13:17:29;;;;;;;11.57;10.48;;;;;;;34.17;20.66;94995.09;5085307;28;20056;-48
2021/09/29 13:20:04;;;;;;;13.32;11.40;;;;;;;33.91;20.99;94994.88;5077244;28;20081;-46
2021/09/29 13:22:35;;;;;;;13.00;11.30;;;;;;;33.82;21.12;94991.19;5077121;28;20059;-44
2021/09/29 13:25:34;;;;;;;12.23;11.07;;;;;;;33.72;20.94;94993.72;5077500;28;20060;-46
2021/09/29 13:39:16;;;;;;;12.63;11.32;;;;;;;33.83;20.85;94984.56;5076968;28;20048;-46
2021/09/29 13:41:45;;;;;;;11.90;10.70;;;;;;;33.50;21.21;94987.22;5083083;28;20070;-45
2021/09/29 13:44:13;;;;;;;11.88;10.65;;;;;;;33.77;21.06;94994.38;5097343;28;20040;-47
2021/09/29 13:46:41;;;;;;;12.48;11.23;;;;;;;33.67;20.96;94991.50;5090654;28;20060;-49
2021/09/29 13:49:09;;;;;;;11.73;10.52;;;;;;;33.62;20.88;94993.94;5076675;28;20059;-45
2021/09/29 13:51:37;;;;;;;12.18;11.05;;;;;;;33.66;21.07;94984.56;5081533;28;20051;-45
2021/09/29 13:54:12;;;;;;;12.35;10.65;;;;;;;33.98;20.79;94988.53;5097146;28;20056;-46
2021/09/29 14:32:14;;;;;;;9.55;8.65;;;;;;;34.21;20.13;94999.22;5031054;28;20044;-46
2021/09/29 14:34:41;;;;;;;10.55;8.90;;;;;;;33.95;20.42;94994.81;5076145;28;20063;-47
2021/09/29 14:37:10;;;;;;;10.13;9.13;;;;;;;33.94;20.36;94977.00;5076397;28;20049;-46
2021/09/29 14:39:38;;;;;;;10.20;9.30;;;;;;;33.76;20.67;94987.44;5075987;28;20047;-45
2021/09/29 14:42:06;;;;;;;10.15;9.25;;;;;;;33.94;20.38;94988.63;5075416;28;20044;-48
2021/09/29 14:44:35;;;;;;;9.93;8.98;;;;;;;33.88;20.42;94989.53;5075959;28;20455;-45
2021/09/29 14:47:09;;;;;;;10.05;9.05;;;;;;;33.62;20.20;94997.44;5075539;28;20076;-45
2021/09/29 14:49:41;;;;;;;8.15;7.45;;;;;;;33.58;20.50;94995.97;5092287;28;20056;-45